createdAt,value
2018-08-28T00:00:17.767Z,19.20
2018-08-28T00:02:47.358Z,19.19
2018-08-28T00:05:17.307Z,19.19
2018-08-28T00:07:46.799Z,19.20
2018-08-28T00:10:16.291Z,19.20
2018-08-28T00:12:45.827Z,19.18
2018-08-28T00:15:15.363Z,19.17
2018-08-28T00:17:44.951Z,19.19
2018-08-28T00:20:14.451Z,19.18
2018-08-28T00:22:44.027Z,19.20
2018-08-28T00:25:13.535Z,19.20
2018-08-28T00:27:43.091Z,19.22
2018-08-28T00:30:12.663Z,19.21
2018-08-28T00:32:42.186Z,19.17
2018-08-28T00:35:11.667Z,19.16
2018-08-28T00:37:41.228Z,19.14
2018-08-28T00:40:10.763Z,19.09
2018-08-28T00:42:40.323Z,19.07
2018-08-28T00:45:10.191Z,19.03
2018-08-28T00:47:39.743Z,19.01
2018-08-28T00:50:09.642Z,18.93
2018-08-28T00:52:39.188Z,18.83
2018-08-28T00:55:09.078Z,18.78
2018-08-28T00:57:38.605Z,18.76
2018-08-28T01:00:08.440Z,18.73
2018-08-28T01:02:38.202Z,18.70
2018-08-28T01:05:08.306Z,18.66
2018-08-28T01:07:38.011Z,18.64
2018-08-28T01:10:08.395Z,18.63
2018-08-28T01:12:37.965Z,18.60
2018-08-28T01:15:08.417Z,18.56
2018-08-28T01:17:37.980Z,18.53
2018-08-28T01:20:07.988Z,18.47
2018-08-28T01:22:37.499Z,18.44
2018-08-28T01:25:08.199Z,18.38
2018-08-28T01:27:37.702Z,18.27
2018-08-28T01:30:07.669Z,18.14
2018-08-28T01:32:37.208Z,18.05
2018-08-28T01:35:06.906Z,18.03
2018-08-28T01:37:36.670Z,18.03
2018-08-28T01:40:07.240Z,17.97
2018-08-28T01:42:36.944Z,17.96
2018-08-28T01:45:07.283Z,17.95
2018-08-28T01:47:36.943Z,17.94
2018-08-28T01:50:07.151Z,17.93
2018-08-28T01:52:36.677Z,17.93
2018-08-28T01:55:06.397Z,17.94
2018-08-28T01:57:36.030Z,17.93
2018-08-28T02:00:05.983Z,17.90
2018-08-28T02:02:35.653Z,17.88
2018-08-28T02:05:05.679Z,17.84
2018-08-28T02:07:35.450Z,17.80
2018-08-28T02:10:05.177Z,17.71
2018-08-28T02:12:35.961Z,17.64
2018-08-28T02:15:05.628Z,17.62
2018-08-28T02:17:35.342Z,17.58
2018-08-28T02:20:05.760Z,17.59
2018-08-28T02:22:35.491Z,17.60
2018-08-28T02:25:06.227Z,17.62
2018-08-28T02:27:36.043Z,17.55
2018-08-28T02:30:06.099Z,17.48
2018-08-28T02:32:35.823Z,17.36
2018-08-28T02:35:05.543Z,17.28
2018-08-28T02:37:35.268Z,17.21
2018-08-28T02:40:04.905Z,17.15
2018-08-28T02:42:34.572Z,17.14
2018-08-28T02:45:04.301Z,17.13
2018-08-28T02:47:33.915Z,17.14
2018-08-28T02:50:03.483Z,17.17
2018-08-28T02:52:33.215Z,17.22
2018-08-28T02:55:02.816Z,17.20
2018-08-28T02:57:32.595Z,17.17
2018-08-28T03:00:02.248Z,17.13
2018-08-28T03:02:31.879Z,17.10
2018-08-28T03:05:01.439Z,17.07
2018-08-28T03:07:31.124Z,17.01
2018-08-28T03:10:01.074Z,16.98
2018-08-28T03:12:31.058Z,16.91
2018-08-28T03:15:00.899Z,16.86
2018-08-28T03:17:30.479Z,16.80
2018-08-28T03:20:00.107Z,16.76
2018-08-28T03:22:29.907Z,16.71
2018-08-28T03:24:59.734Z,16.66
2018-08-28T03:27:29.504Z,16.65
2018-08-28T03:29:59.076Z,16.64
2018-08-28T03:32:28.730Z,16.62
2018-08-28T03:34:58.391Z,16.62
2018-08-28T03:37:28.069Z,16.60
2018-08-28T03:39:57.862Z,16.60
2018-08-28T03:42:27.605Z,16.60
2018-08-28T03:44:57.276Z,16.61
2018-08-28T03:47:27.228Z,16.60
2018-08-28T03:49:57.016Z,16.55
2018-08-28T03:52:26.887Z,16.52
2018-08-28T03:54:56.480Z,16.47
2018-08-28T03:57:26.147Z,16.43
2018-08-28T03:59:55.835Z,16.40
2018-08-28T04:02:25.562Z,16.37
2018-08-28T04:04:55.365Z,16.38
2018-08-28T04:07:24.984Z,16.37
2018-08-28T04:09:54.722Z,16.30
2018-08-28T04:12:24.683Z,16.28
2018-08-28T04:14:54.275Z,16.27
2018-08-28T04:17:23.941Z,16.25
2018-08-28T04:19:53.655Z,16.23
2018-08-28T04:22:23.228Z,16.20
2018-08-28T04:24:53.116Z,16.19
2018-08-28T04:27:22.854Z,16.17
2018-08-28T04:29:52.475Z,16.15
2018-08-28T04:32:22.166Z,16.12
2018-08-28T04:34:51.800Z,16.09
2018-08-28T04:37:21.378Z,16.09
2018-08-28T04:39:50.908Z,16.07
2018-08-28T04:42:20.400Z,16.06
2018-08-28T04:44:50.015Z,16.08
2018-08-28T04:47:19.725Z,16.07
2018-08-28T04:49:49.690Z,16.07
2018-08-28T04:52:19.428Z,16.06
2018-08-28T04:54:49.472Z,16.10
2018-08-28T04:57:19.264Z,16.13
2018-08-28T04:59:49.002Z,16.16
2018-08-28T05:02:18.679Z,16.17
2018-08-28T05:04:48.499Z,16.17
2018-08-28T05:07:18.307Z,16.20
2018-08-28T05:09:47.943Z,16.25
2018-08-28T05:12:17.643Z,16.34
2018-08-28T05:14:47.386Z,16.46
2018-08-28T05:17:16.959Z,16.54
2018-08-28T05:19:46.538Z,16.68
2018-08-28T05:22:16.163Z,16.82
2018-08-28T05:24:45.839Z,16.96
2018-08-28T05:27:15.635Z,17.11
2018-08-28T05:29:45.283Z,17.27
2018-08-28T05:32:15.024Z,17.41
2018-08-28T05:34:45.068Z,17.51
2018-08-28T05:37:14.750Z,17.67
2018-08-28T05:39:44.435Z,17.80
2018-08-28T05:42:14.091Z,17.93
2018-08-28T05:44:43.818Z,18.10
2018-08-28T05:47:13.374Z,18.26
2018-08-28T05:49:43.200Z,18.42
2018-08-28T05:52:12.901Z,18.55
2018-08-28T05:54:42.522Z,18.73
2018-08-28T05:57:12.266Z,18.90
2018-08-28T05:59:41.917Z,19.03
2018-08-28T06:02:11.887Z,19.18
2018-08-28T06:04:41.627Z,19.35
2018-08-28T06:07:11.327Z,19.44
2018-08-28T06:09:41.147Z,19.62
2018-08-28T06:12:10.844Z,19.83
2018-08-28T06:14:40.688Z,19.98
2018-08-28T06:17:10.568Z,20.15
2018-08-28T06:19:40.364Z,20.34
2018-08-28T06:22:10.279Z,20.52
2018-08-28T06:24:39.927Z,20.65
2018-08-28T06:27:09.632Z,20.88
2018-08-28T06:29:39.703Z,21.06
2018-08-28T06:32:09.499Z,21.19
2018-08-28T06:34:39.268Z,21.34
2018-08-28T06:37:09.247Z,21.50
2018-08-28T06:39:39.294Z,21.68
2018-08-28T06:42:08.972Z,21.76
2018-08-28T06:44:38.614Z,21.80
2018-08-28T06:47:08.529Z,21.96
2018-08-28T06:49:38.248Z,22.11
2018-08-28T06:52:08.057Z,22.27
2018-08-28T06:54:37.630Z,22.42
2018-08-28T06:57:07.612Z,22.61
2018-08-28T06:59:37.174Z,22.74
2018-08-28T07:02:07.327Z,22.88
2018-08-28T07:04:36.999Z,22.98
2018-08-28T07:07:07.394Z,23.00
2018-08-28T07:09:37.219Z,23.10
2018-08-28T07:12:06.858Z,23.24
2018-08-28T07:14:36.630Z,23.09
2018-08-28T07:17:06.895Z,23.17
2018-08-28T07:19:36.469Z,23.34
2018-08-28T07:22:06.627Z,23.40
2018-08-28T07:24:36.261Z,23.57
2018-08-28T07:27:06.571Z,23.63
2018-08-28T07:29:36.523Z,23.67
2018-08-28T07:32:06.695Z,23.65
2018-08-28T07:34:36.280Z,23.68
2018-08-28T07:37:06.169Z,23.70
2018-08-28T07:39:35.905Z,23.66
2018-08-28T07:42:05.632Z,23.69
2018-08-28T07:44:35.276Z,23.71
2018-08-28T07:47:05.327Z,23.95
2018-08-28T07:49:34.990Z,24.12
2018-08-28T07:52:04.738Z,24.15
2018-08-28T07:54:34.374Z,24.39
2018-08-28T07:57:03.963Z,24.51
2018-08-28T07:59:33.681Z,24.60
2018-08-28T08:02:03.497Z,24.63
2018-08-28T08:04:33.540Z,24.71
2018-08-28T08:07:03.103Z,24.94
2018-08-28T08:09:32.731Z,25.13
2018-08-28T08:12:02.424Z,25.28
2018-08-28T08:14:32.265Z,25.33
2018-08-28T08:17:01.872Z,25.39
2018-08-28T08:19:31.866Z,25.37
2018-08-28T08:22:01.837Z,25.37
2018-08-28T08:24:31.695Z,25.49
2018-08-28T08:27:01.391Z,25.58
2018-08-28T08:29:31.320Z,25.57
2018-08-28T08:32:00.999Z,25.53
2018-08-28T08:34:30.627Z,25.64
2018-08-28T08:37:00.348Z,25.74
2018-08-28T08:39:30.243Z,25.93
2018-08-28T08:42:00.026Z,26.07
2018-08-28T08:44:29.751Z,26.05
2018-08-28T08:46:59.303Z,26.05
2018-08-28T08:49:29.083Z,25.95
2018-08-28T08:51:59.147Z,25.94
2018-08-28T08:54:28.915Z,25.75
2018-08-28T08:56:59.156Z,25.70
2018-08-28T08:59:28.817Z,25.63
2018-08-28T09:01:58.548Z,25.79
2018-08-28T09:04:28.292Z,25.96
2018-08-28T09:06:58.435Z,26.00
2018-08-28T09:09:28.165Z,26.06
2018-08-28T09:11:57.879Z,26.21
2018-08-28T09:14:27.522Z,26.37
2018-08-28T09:16:57.051Z,26.43
2018-08-28T09:19:26.875Z,26.55
2018-08-28T09:21:56.547Z,26.71
2018-08-28T09:24:26.235Z,26.77
2018-08-28T09:26:55.776Z,26.34
2018-08-28T09:29:25.451Z,26.25
2018-08-28T09:31:55.372Z,26.43
2018-08-28T09:34:25.074Z,26.55
2018-08-28T09:36:54.683Z,26.64
2018-08-28T09:39:24.585Z,26.58
2018-08-28T09:41:54.244Z,26.59
2018-08-28T09:44:23.998Z,26.61
2018-08-28T09:46:53.511Z,26.86
2018-08-28T09:49:23.135Z,26.90
2018-08-28T09:51:52.831Z,26.71
2018-08-28T09:54:22.559Z,26.68
2018-08-28T09:56:52.638Z,26.78
2018-08-28T09:59:22.271Z,26.82
2018-08-28T10:01:51.959Z,26.81
2018-08-28T10:04:21.711Z,26.87
2018-08-28T10:06:51.500Z,26.88
2018-08-28T10:09:21.177Z,26.93
2018-08-28T10:11:50.990Z,26.98
2018-08-28T10:14:20.885Z,26.92
2018-08-28T10:16:50.453Z,26.89
2018-08-28T10:19:20.183Z,26.80
2018-08-28T10:21:49.731Z,26.89
2018-08-28T10:24:19.455Z,26.86
2018-08-28T10:26:49.076Z,26.83
2018-08-28T10:29:18.776Z,26.87
2018-08-28T10:31:48.434Z,26.85
2018-08-28T10:34:18.191Z,26.81
2018-08-28T10:36:47.927Z,26.79
2018-08-28T10:39:17.633Z,26.80
2018-08-28T10:41:47.451Z,26.87
2018-08-28T10:44:17.127Z,26.90
2018-08-28T10:46:47.331Z,26.53
2018-08-28T10:49:17.061Z,26.62
2018-08-28T10:51:46.936Z,26.69
2018-08-28T10:54:16.570Z,26.78
2018-08-28T10:56:46.439Z,26.86
2018-08-28T10:59:16.235Z,26.83
2018-08-28T11:01:45.915Z,26.76
2018-08-28T11:04:15.751Z,26.84
2018-08-28T11:06:45.426Z,26.90
2018-08-28T11:09:15.580Z,26.93
2018-08-28T11:11:45.146Z,26.79
2018-08-28T11:14:15.094Z,26.61
2018-08-28T11:16:44.883Z,26.36
2018-08-28T11:19:14.613Z,26.37
2018-08-28T11:21:44.407Z,26.33
2018-08-28T11:24:14.032Z,26.44
2018-08-28T11:26:43.612Z,26.50
2018-08-28T11:29:13.199Z,26.64
2018-08-28T11:31:42.720Z,26.76
2018-08-28T11:34:12.260Z,26.73
2018-08-28T11:36:41.934Z,26.72
2018-08-28T11:39:11.519Z,26.69
2018-08-28T11:41:41.039Z,26.64
2018-08-28T11:44:10.541Z,26.54
2018-08-28T11:46:40.190Z,26.46
2018-08-28T11:49:09.711Z,26.51
2018-08-28T11:51:39.268Z,26.64
2018-08-28T11:54:08.881Z,26.72
2018-08-28T11:56:38.505Z,26.76
2018-08-28T11:59:08.068Z,26.56
2018-08-28T12:01:37.625Z,26.60
2018-08-28T12:04:07.980Z,26.75
2018-08-28T12:06:37.615Z,26.85
2018-08-28T12:09:08.907Z,26.82
2018-08-28T12:11:38.481Z,26.87
2018-08-28T12:14:08.189Z,26.91
2018-08-28T12:16:37.843Z,26.85
2018-08-28T12:19:07.405Z,26.91
2018-08-28T12:21:37.062Z,26.95
2018-08-28T12:24:07.167Z,26.99
2018-08-28T12:26:36.905Z,27.06
2018-08-28T12:29:07.063Z,27.09
2018-08-28T12:31:36.893Z,27.10
2018-08-28T12:34:06.679Z,27.14
2018-08-28T12:36:36.377Z,27.19
2018-08-28T12:39:07.496Z,27.06
2018-08-28T12:41:37.175Z,27.00
2018-08-28T12:44:06.870Z,27.04
2018-08-28T12:46:36.705Z,26.98
2018-08-28T12:49:06.570Z,27.00
2018-08-28T12:51:36.100Z,26.97
2018-08-28T12:54:06.086Z,27.03
2018-08-28T12:56:35.740Z,27.14
2018-08-28T12:59:06.010Z,27.19
2018-08-28T13:01:35.738Z,27.24
2018-08-28T13:04:05.401Z,27.22
2018-08-28T13:06:34.961Z,27.28
2018-08-28T13:09:05.517Z,27.35
2018-08-28T13:11:35.091Z,27.32
2018-08-28T13:14:04.716Z,27.31
2018-08-28T13:16:34.706Z,27.33
2018-08-28T13:19:04.355Z,27.29
2018-08-28T13:21:34.025Z,27.31
2018-08-28T13:24:03.874Z,27.25
2018-08-28T13:26:33.677Z,27.26
2018-08-28T13:29:03.220Z,27.27
2018-08-28T13:31:32.867Z,27.32
2018-08-28T13:34:02.505Z,27.24
2018-08-28T13:36:32.075Z,27.21
2018-08-28T13:39:01.843Z,27.24
2018-08-28T13:41:31.689Z,27.27
2018-08-28T13:44:01.318Z,27.24
2018-08-28T13:46:31.029Z,27.21
2018-08-28T13:49:00.975Z,27.23
2018-08-28T13:51:30.760Z,27.26
2018-08-28T13:54:00.376Z,27.08
2018-08-28T13:56:30.372Z,27.00
2018-08-28T13:59:00.088Z,27.02
2018-08-28T14:01:30.298Z,27.07
2018-08-28T14:03:59.970Z,27.13
2018-08-28T14:06:29.598Z,27.14
2018-08-28T14:08:59.368Z,27.19
2018-08-28T14:11:29.267Z,27.22
2018-08-28T14:13:59.200Z,27.25
2018-08-28T14:16:28.829Z,27.28
2018-08-28T14:18:58.478Z,27.26
2018-08-28T14:21:28.088Z,27.22
2018-08-28T14:23:57.676Z,27.16
2018-08-28T14:26:27.547Z,27.14
2018-08-28T14:28:57.371Z,27.19
2018-08-28T14:31:27.184Z,27.21
2018-08-28T14:33:56.845Z,27.22
2018-08-28T14:36:27.181Z,27.04
2018-08-28T14:38:57.212Z,26.86
2018-08-28T14:41:27.097Z,26.84
2018-08-28T14:43:56.886Z,26.73
2018-08-28T14:46:27.443Z,26.67
2018-08-28T14:48:57.443Z,26.63
2018-08-28T14:51:27.263Z,26.58
2018-08-28T14:53:56.951Z,26.62
2018-08-28T14:56:27.272Z,26.63
2018-08-28T14:58:57.383Z,26.70
2018-08-28T15:01:27.377Z,26.79
2018-08-28T15:03:57.329Z,26.87
2018-08-28T15:06:27.287Z,26.95
2018-08-28T15:08:57.227Z,26.99
2018-08-28T15:11:27.241Z,27.01
2018-08-28T15:13:57.212Z,27.01
2018-08-28T15:16:26.942Z,27.04
2018-08-28T15:18:56.758Z,27.04
2018-08-28T15:21:26.420Z,27.06
2018-08-28T15:23:55.980Z,27.06
2018-08-28T15:26:25.684Z,27.02
2018-08-28T15:28:55.360Z,26.96
2018-08-28T15:31:24.995Z,26.94
2018-08-28T15:33:54.670Z,26.94
2018-08-28T15:36:24.257Z,26.96
2018-08-28T15:38:53.974Z,26.94
2018-08-28T15:41:23.686Z,26.99
2018-08-28T15:43:53.420Z,27.02
2018-08-28T15:46:23.319Z,27.06
2018-08-28T15:48:53.155Z,27.06
2018-08-28T15:51:23.358Z,27.00
2018-08-28T15:53:53.068Z,27.00
2018-08-28T15:56:22.767Z,26.97
2018-08-28T15:58:52.658Z,26.99
2018-08-28T16:01:23.051Z,26.99
2018-08-28T16:03:52.714Z,26.97
2018-08-28T16:06:22.735Z,26.94
2018-08-28T16:08:52.390Z,26.93
2018-08-28T16:11:22.214Z,26.91
2018-08-28T16:13:51.899Z,26.88
2018-08-28T16:16:21.536Z,26.87
2018-08-28T16:18:51.176Z,26.86
2018-08-28T16:21:20.897Z,26.84
2018-08-28T16:23:50.913Z,26.83
2018-08-28T16:26:20.731Z,26.80
2018-08-28T16:28:50.313Z,26.77
2018-08-28T16:31:20.051Z,26.75
2018-08-28T16:33:49.640Z,26.68
2018-08-28T16:36:19.571Z,26.68
2018-08-28T16:38:49.251Z,26.65
2018-08-28T16:41:18.962Z,26.64
2018-08-28T16:43:48.749Z,26.59
2018-08-28T16:46:18.558Z,26.53
2018-08-28T16:48:48.182Z,26.52
2018-08-28T16:51:17.844Z,26.47
2018-08-28T16:53:47.536Z,26.45
2018-08-28T16:56:17.344Z,26.33
2018-08-28T16:58:47.911Z,26.26
2018-08-28T17:01:17.606Z,26.16
2018-08-28T17:03:47.387Z,26.09
2018-08-28T17:06:17.066Z,26.05
2018-08-28T17:08:46.881Z,25.98
2018-08-28T17:11:16.519Z,25.88
2018-08-28T17:13:46.080Z,25.82
2018-08-28T17:16:15.816Z,25.80
2018-08-28T17:18:45.632Z,25.75
2018-08-28T17:21:15.328Z,25.70
2018-08-28T17:23:45.060Z,25.65
2018-08-28T17:26:14.828Z,25.61
2018-08-28T17:28:44.393Z,25.61
2018-08-28T17:31:14.124Z,25.53
2018-08-28T17:33:43.980Z,25.46
2018-08-28T17:36:13.883Z,25.39
2018-08-28T17:38:43.498Z,25.40
2018-08-28T17:41:13.204Z,25.27
2018-08-28T17:43:42.971Z,25.20
2018-08-28T17:46:12.599Z,25.08
2018-08-28T17:48:42.282Z,25.00
2018-08-28T17:51:12.169Z,24.95
2018-08-28T17:53:41.951Z,24.93
2018-08-28T17:56:11.731Z,24.87
2018-08-28T17:58:41.605Z,24.82
2018-08-28T18:01:11.323Z,24.79
2018-08-28T18:03:41.012Z,24.70
2018-08-28T18:06:10.735Z,24.62
2018-08-28T18:08:41.445Z,24.54
2018-08-28T18:11:11.091Z,24.45
2018-08-28T18:13:41.851Z,24.37
2018-08-28T18:16:11.411Z,24.31
2018-08-28T18:18:41.231Z,24.26
2018-08-28T18:21:11.142Z,24.18
2018-08-28T18:23:40.943Z,24.13
2018-08-28T18:26:10.500Z,24.06
2018-08-28T18:28:40.272Z,23.99
2018-08-28T18:31:09.884Z,23.93
2018-08-28T18:33:39.487Z,23.87
2018-08-28T18:36:09.247Z,23.80
2018-08-28T18:38:39.115Z,23.74
2018-08-28T18:41:08.769Z,23.67
2018-08-28T18:43:38.629Z,23.59
2018-08-28T18:46:08.365Z,23.55
2018-08-28T18:48:37.931Z,23.44
2018-08-28T18:51:07.941Z,23.39
2018-08-28T18:53:38.166Z,23.34
2018-08-28T18:56:08.028Z,23.30
2018-08-28T18:58:37.912Z,23.28
2018-08-28T19:01:07.995Z,23.23
2018-08-28T19:03:38.410Z,23.18
2018-08-28T19:06:08.013Z,23.14
2018-08-28T19:08:37.613Z,23.09
2018-08-28T19:11:07.531Z,23.01
2018-08-28T19:13:37.459Z,22.92
2018-08-28T19:16:07.393Z,22.83
2018-08-28T19:18:36.964Z,22.75
2018-08-28T19:21:06.541Z,22.65
2018-08-28T19:23:36.122Z,22.49
2018-08-28T19:26:05.758Z,22.41
2018-08-28T19:28:35.630Z,22.34
2018-08-28T19:31:05.580Z,22.28
2018-08-28T19:33:35.218Z,22.23
2018-08-28T19:36:04.892Z,22.15
2018-08-28T19:38:34.471Z,22.06
2018-08-28T19:41:04.093Z,21.98
2018-08-28T19:43:33.954Z,21.92
2018-08-28T19:46:03.828Z,21.84
2018-08-28T19:48:33.542Z,21.77
2018-08-28T19:51:03.320Z,21.72
2018-08-28T19:53:32.919Z,21.64
2018-08-28T19:56:03.105Z,21.58
2018-08-28T19:58:32.742Z,21.52
2018-08-28T20:01:02.573Z,21.45
2018-08-28T20:03:32.247Z,21.40
2018-08-28T20:06:02.099Z,21.33
2018-08-28T20:08:31.779Z,21.27
2018-08-28T20:11:01.687Z,21.24
2018-08-28T20:13:31.429Z,21.20
2018-08-28T20:16:01.128Z,21.17
2018-08-28T20:18:30.749Z,21.14
2018-08-28T20:21:00.528Z,21.08
2018-08-28T20:23:32.003Z,20.95
2018-08-28T20:26:01.687Z,20.98
2018-08-28T20:28:31.328Z,20.97
2018-08-28T20:31:01.016Z,20.88
2018-08-28T20:33:30.765Z,20.83
2018-08-28T20:36:00.326Z,20.75
2018-08-28T20:38:30.084Z,20.58
2018-08-28T20:40:59.963Z,20.48
2018-08-28T20:43:29.877Z,20.35
2018-08-28T20:45:59.700Z,20.32
2018-08-28T20:48:29.321Z,20.29
2018-08-28T20:50:58.875Z,20.26
2018-08-28T20:53:28.739Z,20.25
2018-08-28T20:55:58.632Z,20.20
2018-08-28T20:58:28.237Z,20.18
2018-08-28T21:00:57.837Z,20.16
2018-08-28T21:03:27.453Z,20.13
2018-08-28T21:05:57.204Z,20.07
2018-08-28T21:08:26.901Z,20.02
2018-08-28T21:10:56.589Z,19.95
2018-08-28T21:13:26.170Z,19.90
2018-08-28T21:15:56.087Z,19.90
2018-08-28T21:18:25.701Z,19.89
2018-08-28T21:20:55.436Z,19.85
2018-08-28T21:23:25.235Z,19.80
2018-08-28T21:25:55.034Z,19.78
2018-08-28T21:28:24.721Z,19.72
2018-08-28T21:30:54.454Z,19.72
2018-08-28T21:33:24.163Z,19.73
2018-08-28T21:35:53.896Z,19.73
2018-08-28T21:38:23.983Z,19.72
2018-08-28T21:40:53.687Z,19.62
2018-08-28T21:43:23.369Z,19.58
2018-08-28T21:45:53.185Z,19.59
2018-08-28T21:48:22.819Z,19.53
2018-08-28T21:50:52.544Z,19.52
2018-08-28T21:53:22.144Z,19.48
2018-08-28T21:55:51.831Z,19.40
2018-08-28T21:58:21.475Z,19.37
2018-08-28T22:00:56.236Z,19.31
2018-08-28T22:03:25.976Z,19.26
2018-08-28T22:05:55.583Z,19.21
2018-08-28T22:08:25.230Z,19.13
2018-08-28T22:10:55.064Z,19.07
2018-08-28T22:13:24.851Z,19.01
2018-08-28T22:15:55.038Z,18.95
2018-08-28T22:18:25.394Z,18.93
2018-08-28T22:20:55.067Z,18.89
2018-08-28T22:23:25.558Z,18.83
2018-08-28T22:25:55.287Z,18.77
2018-08-28T22:28:24.896Z,18.66
2018-08-28T22:30:54.428Z,18.63
2018-08-28T22:33:24.252Z,18.54
2018-08-28T22:35:53.952Z,18.48
2018-08-28T22:38:23.567Z,18.44
2018-08-28T22:40:53.232Z,18.39
2018-08-28T22:43:23.915Z,18.33
2018-08-28T22:45:53.688Z,18.31
2018-08-28T22:48:23.317Z,18.28
2018-08-28T22:50:53.042Z,18.22
2018-08-28T22:53:22.714Z,18.19
2018-08-28T22:55:52.340Z,18.14
2018-08-28T22:58:22.157Z,18.11
2018-08-28T23:00:52.047Z,18.04
2018-08-28T23:03:22.068Z,18.02
2018-08-28T23:05:51.820Z,18.01
2018-08-28T23:08:21.404Z,17.96
2018-08-28T23:10:51.127Z,17.93
2018-08-28T23:13:20.702Z,17.88
2018-08-28T23:15:50.424Z,17.85
2018-08-28T23:18:20.467Z,17.84
2018-08-28T23:20:50.227Z,17.79
2018-08-28T23:23:19.968Z,17.79
2018-08-28T23:25:49.946Z,17.79
2018-08-28T23:28:19.664Z,17.76
2018-08-28T23:30:49.376Z,17.74
2018-08-28T23:33:19.023Z,17.71
2018-08-28T23:35:48.532Z,17.70
2018-08-28T23:38:18.215Z,17.69
2018-08-28T23:40:47.903Z,17.66
2018-08-28T23:43:17.524Z,17.65
2018-08-28T23:45:47.223Z,17.63
2018-08-28T23:48:16.958Z,17.62
2018-08-28T23:50:46.659Z,17.60
2018-08-28T23:53:16.415Z,17.57
2018-08-28T23:55:46.154Z,17.58
2018-08-28T23:58:15.907Z,17.53
